Orleans, Minnesota
Current Conditions -  °F | °C
As of 2:35 AM on Saturday 20 Dec 2014 (Local Time) from KHCO Reporting Station
Haze Haze  
Wind Chill: 28°   Ceiling: 200
Heat Index: 28°   Visibility: 1.7mi
Dew Point: 28°   Wind: 0mph
Humidity: 100%   Direction: NA
Pressure: 30"   Gusts: NA
Location:  48.9114°N, 96.8428°W
Report Text: KHCO 200835Z AUTO 00000KT 1 3/4SM BR BKN002 BKN013 OVC060 M02/M02 A3000 RMK AO2
Loading
Personal Weather Stations






























Interactive Weather Map New forecast layout! Learn more

10-Day Weather Forecast

Advertisements
Track Severe Weather on mobile